Time;durP1;ratioP1;P1;durP2;ratioP2;P2;SDS_P1;SDS_P2;PMS_P1;PMS_P2;Temp;Humidity;BMP_temperature;BMP_pressure;BME280_temperature;BME280_humidity;BME280_pressure;Samples;Min_cycle;Max_cycle;Signal;HPM_P1;HPM_P2
2022/06/07 00:02:01;;;;;;;9.53;8.80;;;16.30;1.00;;;;;;5076733;28;20455;-77
2022/06/07 00:04:28;;;;;;;9.90;9.00;;;16.20;1.00;;;;;;5079616;28;20482;-78
2022/06/07 00:06:56;;;;;;;11.80;10.70;;;16.20;1.00;;;;;;5077495;28;20458;-76
2022/06/07 00:09:25;;;;;;;10.83;9.83;;;16.10;1.00;;;;;;5080208;28;20463;-76
2022/06/07 00:11:53;;;;;;;11.40;10.40;;;16.10;1.00;;;;;;5080264;28;20456;-76
2022/06/07 00:14:20;;;;;;;11.60;10.60;;;16.00;1.00;;;;;;5086344;27;20477;-76
2022/06/07 00:16:47;;;;;;;11.10;10.10;;;16.10;1.00;;;;;;5077797;28;20446;-76
2022/06/07 00:19:14;;;;;;;11.17;10.07;;;16.10;1.00;;;;;;5074938;28;20471;-77
2022/06/07 00:21:43;;;;;;;10.60;9.60;;;16.10;1.00;;;;;;5078415;28;20474;-76
2022/06/07 00:24:11;;;;;;;11.07;10.13;;;16.10;1.00;;;;;;5076019;28;20563;-76
2022/06/07 00:26:41;;;;;;;11.20;10.20;;;16.10;1.00;;;;;;5077975;28;20681;-77
2022/06/07 00:29:08;;;;;;;11.10;10.20;;;16.10;1.00;;;;;;5076284;28;20557;-76
2022/06/07 00:31:35;;;;;;;11.03;10.03;;;16.10;1.00;;;;;;5076564;28;20483;-75
2022/06/07 00:34:05;;;;;;;11.73;10.73;;;16.10;1.00;;;;;;5077527;28;21193;-76
2022/06/07 00:36:33;;;;;;;10.73;9.73;;;16.10;1.00;;;;;;5078122;28;20453;-74
2022/06/07 00:39:00;;;;;;;10.10;9.30;;;16.00;1.00;;;;;;5077206;28;20475;-76
2022/06/07 00:41:31;;;;;;;10.27;9.37;;;16.00;1.00;;;;;;5076266;28;20455;-75
2022/06/07 00:44:27;;;;;;;10.77;9.70;;;16.00;1.00;;;;;;5081804;28;20482;-77
2022/06/07 00:46:56;;;;;;;10.43;9.53;;;16.10;1.00;;;;;;5074395;28;20463;-77
2022/06/07 00:49:25;;;;;;;9.97;9.00;;;16.00;1.00;;;;;;5076322;28;20474;-76
2022/06/07 00:51:53;;;;;;;9.53;8.53;;;16.00;1.00;;;;;;5077686;28;20454;-75
2022/06/07 00:54:20;;;;;;;10.50;9.70;;;16.00;1.00;;;;;;5081387;28;20480;-76
2022/06/07 00:56:48;;;;;;;9.60;8.80;;;16.00;1.00;;;;;;5083545;28;21116;-76
2022/06/07 00:59:15;;;;;;;10.80;9.93;;;16.00;1.00;;;;;;5081126;28;20792;-77
2022/06/07 01:01:42;;;;;;;10.10;9.20;;;16.00;1.00;;;;;;5079820;28;20459;-76
2022/06/07 01:04:10;;;;;;;9.37;8.67;;;16.00;1.00;;;;;;5078388;28;20565;-76
2022/06/07 01:12:10;;;;;;;10.60;9.70;;;15.90;1.00;;;;;;5078290;28;20981;-78
2022/06/07 01:14:37;;;;;;;9.80;9.00;;;15.80;1.00;;;;;;5076284;28;20489;-76
2022/06/07 01:17:05;;;;;;;10.10;9.30;;;15.80;1.00;;;;;;5078225;27;20910;-75
2022/06/07 01:19:34;;;;;;;11.50;10.57;;;15.80;1.00;;;;;;5079788;28;20466;-75
2022/06/07 01:22:03;;;;;;;10.93;10.03;;;15.80;1.00;;;;;;5079457;28;20469;-77
2022/06/07 01:24:30;;;;;;;11.20;10.10;;;15.80;1.00;;;;;;5081127;28;20472;-76
2022/06/07 01:26:57;;;;;;;12.70;10.67;;;15.80;1.00;;;;;;5080510;28;21319;-76
2022/06/07 01:29:24;;;;;;;11.23;10.33;;;15.70;1.00;;;;;;5079295;28;20466;-78
2022/06/07 01:31:51;;;;;;;11.07;9.97;;;15.70;1.00;;;;;;5080169;28;21112;-76
2022/06/07 01:34:17;;;;;;;10.90;9.80;;;15.70;1.00;;;;;;5078958;28;20481;-76
2022/06/07 01:36:44;;;;;;;11.17;10.07;;;15.60;1.00;;;;;;5080067;28;20451;-75
2022/06/07 01:41:57;;;;;;;10.83;9.83;;;15.60;1.00;;;;;;5085598;28;20573;-75
2022/06/07 01:44:26;;;;;;;9.77;8.90;;;15.70;1.00;;;;;;5079803;28;20931;-76
2022/06/07 01:46:54;;;;;;;10.00;9.10;;;15.60;1.00;;;;;;5079792;28;20469;-75
2022/06/07 01:49:23;;;;;;;10.57;9.60;;;15.70;1.00;;;;;;5080036;28;20459;-75
2022/06/07 01:51:51;;;;;;;11.50;10.47;;;15.70;1.00;;;;;;5080903;28;20546;-76
2022/06/07 01:54:20;;;;;;;10.90;10.00;;;15.70;1.00;;;;;;5080132;28;20469;-75
2022/06/07 01:56:47;;;;;;;10.33;9.43;;;15.70;1.00;;;;;;5081598;28;20941;-75
2022/06/07 01:59:16;;;;;;;10.30;9.40;;;15.70;1.00;;;;;;5080304;28;20458;-76
2022/06/07 02:01:43;;;;;;;11.20;9.70;;;15.70;1.00;;;;;;5074714;28;20494;-75
2022/06/07 02:04:11;;;;;;;10.70;9.80;;;15.70;1.00;;;;;;5059319;28;20472;-75
2022/06/07 02:06:38;;;;;;;9.90;9.10;;;15.70;1.00;;;;;;5061567;28;20456;-76
2022/06/07 02:09:06;;;;;;;9.90;9.07;;;15.70;1.00;;;;;;5058457;28;20464;-76
2022/06/07 02:11:35;;;;;;;10.57;9.57;;;15.70;1.00;;;;;;5062023;28;20525;-75
2022/06/07 02:14:03;;;;;;;10.90;10.00;;;15.60;1.00;;;;;;5059921;28;20467;-76
2022/06/07 02:16:31;;;;;;;10.17;9.27;;;15.60;1.00;;;;;;5055100;28;20820;-76
2022/06/07 02:18:58;;;;;;;10.47;9.57;;;15.70;1.00;;;;;;5059873;28;20460;-75
2022/06/07 02:21:25;;;;;;;10.33;9.43;;;15.60;1.00;;;;;;5057311;28;20450;-76
2022/06/07 02:23:52;;;;;;;10.57;9.57;;;15.70;1.00;;;;;;5061077;28;20546;-76
2022/06/07 02:26:23;;;;;;;10.40;9.50;;;15.70;1.00;;;;;;5061362;28;20463;-74
2022/06/07 02:28:54;;;;;;;11.17;10.17;;;15.60;1.00;;;;;;5078750;28;20492;-75
2022/06/07 02:31:22;;;;;;;9.50;8.70;;;15.60;1.00;;;;;;5076882;28;20463;-75
2022/06/07 02:33:49;;;;;;;10.63;9.70;;;15.60;1.00;;;;;;5078302;28;23801;-76
2022/06/07 02:36:17;;;;;;;10.47;9.57;;;15.60;1.00;;;;;;5072929;28;20931;-76
2022/06/07 02:38:45;;;;;;;10.67;9.67;;;15.60;1.00;;;;;;5078999;28;20479;-76
2022/06/07 02:41:18;;;;;;;16.63;15.13;;;15.60;1.00;;;;;;5075727;28;21299;-76
2022/06/07 02:43:45;;;;;;;10.90;10.10;;;15.60;1.00;;;;;;5075678;28;20469;-77
2022/06/07 02:46:13;;;;;;;12.17;10.93;;;15.50;1.00;;;;;;5077516;28;20455;-76
2022/06/07 02:48:40;;;;;;;12.83;11.73;;;15.40;1.00;;;;;;5084345;28;20458;-76
2022/06/07 02:51:07;;;;;;;12.93;11.40;;;15.40;1.00;;;;;;5080048;28;20495;-75
2022/06/07 02:53:34;;;;;;;11.60;10.60;;;15.30;1.00;;;;;;5076350;28;20909;-76
2022/06/07 02:56:01;;;;;;;11.37;10.37;;;15.30;1.00;;;;;;5074154;28;20443;-76
2022/06/07 02:58:28;;;;;;;12.23;11.07;;;15.30;1.00;;;;;;5075570;28;20450;-76
2022/06/07 03:00:58;;;;;;;11.20;10.20;;;15.30;1.00;;;;;;5080477;28;20456;-76
2022/06/07 03:03:26;;;;;;;12.27;11.17;;;15.30;1.00;;;;;;5067716;28;20445;-78
2022/06/07 03:05:53;;;;;;;12.47;11.47;;;15.30;1.00;;;;;;5078072;28;20459;-77
2022/06/07 03:08:23;;;;;;;14.03;12.77;;;15.30;1.00;;;;;;5079561;28;20474;-77
2022/06/07 03:10:50;;;;;;;12.30;11.30;;;15.30;1.00;;;;;;5080892;28;20459;-75
2022/06/07 03:13:19;;;;;;;10.90;9.90;;;15.30;1.00;;;;;;5077612;28;20486;-76
2022/06/07 03:15:47;;;;;;;12.10;10.97;;;15.30;1.00;;;;;;5078524;28;21016;-77
2022/06/07 03:18:14;;;;;;;12.33;11.23;;;15.30;1.00;;;;;;5078223;28;21039;-76
2022/06/07 03:20:43;;;;;;;11.83;10.83;;;15.30;1.00;;;;;;5079086;28;20465;-77
2022/06/07 03:23:10;;;;;;;11.30;10.40;;;15.30;1.00;;;;;;5077126;28;20480;-76
2022/06/07 03:25:37;;;;;;;12.03;10.97;;;15.30;1.00;;;;;;5080531;28;20537;-75
2022/06/07 03:28:04;;;;;;;11.60;10.70;;;15.30;1.00;;;;;;5078630;28;20550;-77
2022/06/07 03:30:32;;;;;;;12.37;11.23;;;15.40;1.00;;;;;;5075674;28;20448;-76
2022/06/07 03:32:59;;;;;;;12.63;11.33;;;15.30;1.00;;;;;;5080174;28;20460;-76
2022/06/07 03:35:26;;;;;;;12.73;11.63;;;15.30;1.00;;;;;;5075928;28;20439;-76
2022/06/07 03:37:54;;;;;;;12.40;11.23;;;15.30;1.00;;;;;;5079769;28;20534;-76
2022/06/07 03:43:06;;;;;;;12.17;11.10;;;15.40;1.00;;;;;;5081253;28;20577;-77
2022/06/07 03:45:33;;;;;;;13.03;11.80;;;15.40;1.00;;;;;;5078162;28;20980;-77
2022/06/07 03:48:00;;;;;;;13.10;12.00;;;15.40;1.00;;;;;;5068741;28;20479;-76
2022/06/07 03:50:27;;;;;;;13.43;12.33;;;15.50;1.00;;;;;;5063954;28;20587;-78
2022/06/07 03:52:55;;;;;;;12.80;11.70;;;15.50;1.00;;;;;;5080674;28;20497;-76
2022/06/07 03:55:22;;;;;;;12.60;11.50;;;15.50;1.00;;;;;;5076523;28;20459;-76
2022/06/07 03:57:49;;;;;;;12.57;11.40;;;15.60;1.00;;;;;;5079154;28;20571;-77
2022/06/07 04:00:16;;;;;;;12.47;11.37;;;15.70;1.00;;;;;;5076575;28;20485;-76
2022/06/07 04:02:43;;;;;;;12.97;11.87;;;15.80;1.00;;;;;;5074324;28;20482;-76
2022/06/07 04:05:10;;;;;;;11.30;10.30;;;15.80;1.00;;;;;;5072647;27;20457;-77
2022/06/07 04:10:24;;;;;;;13.20;11.87;;;15.90;1.00;;;;;;5078211;28;20471;-78
2022/06/07 04:12:50;;;;;;;12.70;11.67;;;15.90;1.00;;;;;;5061469;28;20479;-77
2022/06/07 04:15:19;;;;;;;13.90;11.50;;;16.00;1.00;;;;;;5056195;28;20986;-76
2022/06/07 04:17:48;;;;;;;11.57;10.57;;;16.00;1.00;;;;;;5045693;28;20558;-77
2022/06/07 04:20:15;;;;;;;12.83;11.50;;;16.10;1.00;;;;;;5052717;28;20460;-75
2022/06/07 04:22:41;;;;;;;12.80;9.63;;;16.10;1.00;;;;;;5070909;28;20473;-75
2022/06/07 04:25:09;;;;;;;9.73;8.73;;;16.20;1.00;;;;;;5081149;28;23159;-76
2022/06/07 04:27:37;;;;;;;9.13;8.33;;;16.20;1.00;;;;;;5077769;28;20562;-76
2022/06/07 04:30:05;;;;;;;7.93;7.23;;;16.30;1.00;;;;;;5082231;28;20464;-76
2022/06/07 04:32:33;;;;;;;6.50;6.00;;;16.50;1.00;;;;;;5067378;28;20539;-76
2022/06/07 04:35:01;;;;;;;8.10;7.40;;;16.50;1.00;;;;;;5054621;28;20484;-78
2022/06/07 04:37:29;;;;;;;6.90;6.27;;;16.60;1.00;;;;;;5057254;28;20464;-76
2022/06/07 04:39:56;;;;;;;6.40;5.80;;;16.60;1.00;;;;;;5068902;28;20982;-76
2022/06/07 04:42:23;;;;;;;5.43;4.93;;;16.60;1.00;;;;;;5079632;28;20466;-75
2022/06/07 04:44:54;;;;;;;6.00;5.40;;;16.60;1.00;;;;;;5075877;28;20828;-75
2022/06/07 04:47:21;;;;;;;6.13;5.13;;;16.70;1.00;;;;;;5079292;27;20458;-75
2022/06/07 04:49:47;;;;;;;5.17;4.77;;;16.70;1.00;;;;;;5077166;28;20455;-76
2022/06/07 04:52:14;;;;;;;5.20;4.70;;;16.80;1.00;;;;;;5077866;28;20565;-76
2022/06/07 04:54:41;;;;;;;6.53;5.37;;;16.80;1.00;;;;;;5078425;28;20822;-77
2022/06/07 04:57:08;;;;;;;5.40;4.43;;;16.90;1.00;;;;;;5081594;27;20542;-75
2022/06/07 04:59:35;;;;;;;4.23;3.83;;;17.00;1.00;;;;;;5081393;28;20501;-76
2022/06/07 05:02:04;;;;;;;8.57;4.50;;;17.00;1.00;;;;;;5081183;27;20597;-76
2022/06/07 05:04:31;;;;;;;5.73;3.90;;;17.10;1.00;;;;;;5082909;28;20458;-75
2022/06/07 05:06:58;;;;;;;4.10;3.73;;;17.10;1.00;;;;;;5074455;27;20495;-76
2022/06/07 05:09:25;;;;;;;5.90;3.87;;;17.30;1.00;;;;;;5077787;28;20474;-77
2022/06/07 05:11:54;;;;;;;6.07;4.03;;;17.50;1.00;;;;;;5080774;27;21345;-76
2022/06/07 05:14:23;;;;;;;4.70;3.63;;;17.70;1.00;;;;;;5077296;28;20443;-76
2022/06/07 05:16:51;;;;;;;4.37;3.97;;;17.80;1.00;;;;;;5076577;28;20970;-76
2022/06/07 05:19:20;;;;;;;4.57;4.07;;;17.80;1.00;;;;;;5080467;27;20434;-77
2022/06/07 05:21:47;;;;;;;8.43;4.10;;;17.70;1.00;;;;;;5077207;28;20467;-76
2022/06/07 05:24:15;;;;;;;6.17;3.60;;;17.70;1.00;;;;;;5077299;28;20463;-77
2022/06/07 05:26:46;;;;;;;4.33;3.80;;;17.60;1.00;;;;;;5076728;28;20976;-74
2022/06/07 05:29:18;;;;;;;4.20;3.80;;;17.60;1.00;;;;;;5073933;28;20539;-76
2022/06/07 05:31:45;;;;;;;4.13;3.83;;;17.60;1.00;;;;;;5072368;28;20466;-76
2022/06/07 05:34:12;;;;;;;5.80;4.13;;;17.50;1.00;;;;;;5080277;28;20500;-76
2022/06/07 05:36:40;;;;;;;4.60;4.20;;;17.40;1.00;;;;;;5081860;28;20463;-76
2022/06/07 05:39:18;;;;;;;5.00;4.50;;;17.40;1.00;;;;;;5083408;28;20482;-75
2022/06/07 05:41:44;;;;;;;5.07;4.60;;;17.40;1.00;;;;;;5081089;28;20945;-76
2022/06/07 05:44:11;;;;;;;4.70;4.07;;;17.50;1.00;;;;;;5080265;28;21080;-77
2022/06/07 05:46:38;;;;;;;6.00;5.07;;;17.60;1.00;;;;;;5085103;28;20599;-75
2022/06/07 05:49:05;;;;;;;5.10;4.60;;;17.60;1.00;;;;;;5079998;28;20496;-76
2022/06/07 05:51:32;;;;;;;4.90;4.50;;;17.70;1.00;;;;;;5084518;28;20961;-77
2022/06/07 05:54:00;;;;;;;6.33;5.73;;;17.70;1.00;;;;;;5080619;28;20565;-76
2022/06/07 05:56:28;;;;;;;5.80;5.20;;;17.70;1.00;;;;;;5081427;28;20487;-77
2022/06/07 05:58:55;;;;;;;5.90;4.70;;;17.70;1.00;;;;;;5078554;28;21386;-76
2022/06/07 06:01:22;;;;;;;5.53;4.97;;;18.00;1.00;;;;;;5075733;28;20478;-76
2022/06/07 06:03:49;;;;;;;10.17;4.23;;;18.20;1.00;;;;;;5085354;28;20458;-74
2022/06/07 06:06:16;;;;;;;3.87;3.47;;;18.60;1.00;;;;;;5069872;28;20467;-75
2022/06/07 06:11:29;;;;;;;5.10;3.73;;;19.20;1.00;;;;;;5078981;28;20434;-76
2022/06/07 06:13:56;;;;;;;5.20;4.10;;;19.50;1.00;;;;;;5081506;28;20572;-76
2022/06/07 06:16:24;;;;;;;3.83;3.50;;;19.70;1.00;;;;;;5078044;28;20477;-75
2022/06/07 06:18:52;;;;;;;4.40;3.60;;;19.90;1.00;;;;;;5073521;28;20466;-75
2022/06/07 06:21:22;;;;;;;4.70;3.50;;;20.10;1.00;;;;;;5077613;28;20854;-74
2022/06/07 06:23:49;;;;;;;3.77;3.40;;;20.20;1.00;;;;;;5078339;28;20529;-74
2022/06/07 06:26:19;;;;;;;5.17;4.67;;;20.30;1.00;;;;;;5080121;28;20466;-76
2022/06/07 06:28:48;;;;;;;3.60;3.13;;;20.40;1.00;;;;;;5077954;28;20459;-76
2022/06/07 06:31:16;;;;;;;4.67;3.33;;;20.60;1.00;;;;;;5079817;28;20607;-75
2022/06/07 06:33:45;;;;;;;2.97;2.70;;;20.60;1.00;;;;;;5076486;28;20842;-75
2022/06/07 06:36:14;;;;;;;3.03;2.73;;;20.70;1.00;;;;;;5079179;28;20903;-75
2022/06/07 06:38:45;;;;;;;3.43;2.73;;;20.90;1.00;;;;;;5079903;28;21084;-76
2022/06/07 06:41:14;;;;;;;3.50;3.20;;;21.00;1.00;;;;;;5099752;27;20623;-75
2022/06/07 06:43:47;;;;;;;3.83;2.63;;;21.10;1.00;;;;;;5086994;28;20594;-75
2022/06/07 06:46:16;;;;;;;5.23;2.43;;;21.20;1.00;;;;;;5080445;28;20470;-77
2022/06/07 06:48:46;;;;;;;4.13;2.50;;;21.30;1.00;;;;;;5088309;28;20398;-78
2022/06/07 06:51:17;;;;;;;3.20;2.73;;;21.40;1.00;;;;;;5089671;28;20540;-78
2022/06/07 06:53:47;;;;;;;3.70;2.60;;;21.40;1.00;;;;;;5090206;28;20439;-78
2022/06/07 06:56:16;;;;;;;6.83;2.50;;;21.50;1.00;;;;;;5081687;28;20458;-78
2022/06/07 06:58:45;;;;;;;6.47;3.10;;;21.50;1.00;;;;;;5090449;28;20458;-78
2022/06/07 07:01:16;;;;;;;6.50;3.80;;;21.50;1.00;;;;;;5085474;28;20474;-79
2022/06/07 07:03:46;;;;;;;4.87;2.00;;;21.50;1.00;;;;;;5088450;28;20416;-77
2022/06/07 07:06:16;;;;;;;5.10;2.87;;;21.60;1.00;;;;;;5082883;28;20558;-80
2022/06/07 07:08:46;;;;;;;7.33;4.10;;;21.50;1.00;;;;;;5084624;27;21149;-78
2022/06/07 07:11:15;;;;;;;4.90;2.60;;;21.60;1.00;;;;;;5084354;28;20514;-77
2022/06/07 07:13:46;;;;;;;4.77;3.30;;;21.60;1.00;;;;;;5083513;28;20412;-76
2022/06/07 07:16:18;;;;;;;7.20;2.97;;;21.60;1.00;;;;;;5074222;28;20461;-78
2022/06/07 07:18:46;;;;;;;6.27;3.07;;;21.60;1.00;;;;;;5079648;28;20961;-76
2022/06/07 07:21:18;;;;;;;4.77;2.67;;;21.60;1.00;;;;;;5082535;28;20478;-77
2022/06/07 07:23:48;;;;;;;4.23;2.97;;;21.60;1.00;;;;;;5080183;28;20505;-76
2022/06/07 07:26:18;;;;;;;5.57;3.10;;;21.90;1.00;;;;;;5070865;28;20546;-77
2022/06/07 07:28:49;;;;;;;6.10;2.90;;;22.30;1.00;;;;;;5082084;28;20611;-77
2022/06/07 07:31:19;;;;;;;5.90;2.37;;;22.50;1.00;;;;;;5071740;27;20474;-77
2022/06/07 07:33:46;;;;;;;4.50;2.43;;;22.70;1.00;;;;;;5078429;28;20462;-77
2022/06/07 07:36:14;;;;;;;7.10;2.83;;;22.80;1.00;;;;;;5086206;27;20569;-76
2022/06/07 07:38:42;;;;;;;6.80;2.80;;;22.80;1.00;;;;;;5083417;28;21190;-76
2022/06/07 07:41:18;;;;;;;5.60;2.97;;;22.80;1.00;;;;;;5077114;28;20992;-75
2022/06/07 07:43:45;;;;;;;4.70;2.30;;;22.60;1.00;;;;;;5079372;28;20460;-78
2022/06/07 07:46:13;;;;;;;6.80;2.20;;;22.50;1.00;;;;;;5077904;28;20458;-75
2022/06/07 07:48:41;;;;;;;5.20;2.37;;;22.30;1.00;;;;;;5079746;27;20451;-76
2022/06/07 07:51:13;;;;;;;5.30;2.57;;;22.30;1.00;;;;;;5079026;28;21255;-77
2022/06/07 07:53:40;;;;;;;8.80;2.73;;;22.40;1.00;;;;;;5080087;28;20455;-76
2022/06/07 07:56:08;;;;;;;4.87;2.13;;;22.30;1.00;;;;;;5077636;28;20470;-75
2022/06/07 07:58:35;;;;;;;5.27;2.20;;;22.30;1.00;;;;;;5073776;28;20469;-75
2022/06/07 08:01:09;;;;;;;6.80;2.07;;;22.40;1.00;;;;;;5079402;28;20467;-77
2022/06/07 08:03:38;;;;;;;5.67;2.30;;;22.50;1.00;;;;;;5077605;28;20846;-74
2022/06/07 08:06:08;;;;;;;5.90;2.17;;;22.80;1.00;;;;;;5066566;28;20545;-74
2022/06/07 08:08:35;;;;;;;5.25;2.20;;;23.00;1.00;;;;;;5073379;28;20565;-73
2022/06/07 08:11:02;;;;;;;5.97;2.40;;;23.20;1.00;;;;;;5077401;28;20334;-72
2022/06/07 08:13:29;;;;;;;4.97;1.90;;;23.50;1.00;;;;;;5074000;28;21272;-76
2022/06/07 08:15:56;;;;;;;7.20;2.50;;;23.60;1.00;;;;;;5074900;28;20465;-75
2022/06/07 08:18:24;;;;;;;4.93;2.27;;;24.00;1.00;;;;;;5064571;28;20479;-74
2022/06/07 08:20:52;;;;;;;5.50;2.30;;;24.20;1.00;;;;;;5056628;28;21073;-72
2022/06/07 08:23:20;;;;;;;5.00;1.80;;;24.10;1.00;;;;;;5056083;28;20598;-73
2022/06/07 08:25:47;;;;;;;4.17;1.93;;;24.20;1.00;;;;;;5054575;28;20467;-74
2022/06/07 08:28:14;;;;;;;6.50;2.20;;;24.40;1.00;;;;;;5057860;28;20540;-73
2022/06/07 08:30:45;;;;;;;5.43;1.87;;;24.50;1.00;;;;;;5072647;28;21021;-75
2022/06/07 08:38:43;;;;;;;6.70;2.40;;;24.90;1.00;;;;;;5070205;28;20831;-73
2022/06/07 08:41:21;;;;;;;4.60;1.63;;;25.10;1.00;;;;;;5071034;28;20609;-74
2022/06/07 08:43:47;;;;;;;7.03;2.40;;;25.30;1.00;;;;;;5075970;28;20482;-74
2022/06/07 08:46:18;;;;;;;4.57;2.07;;;25.20;1.00;;;;;;5073245;28;20470;-74
2022/06/07 08:48:45;;;;;;;4.83;1.93;;;25.20;1.00;;;;;;5073777;28;20830;-75
2022/06/07 08:51:19;;;;;;;7.07;2.10;;;24.90;1.00;;;;;;5076653;28;20478;-73
2022/06/07 08:53:54;;;;;;;4.90;1.70;;;24.80;1.00;;;;;;5065652;28;20474;-72
2022/06/07 08:56:25;;;;;;;5.97;2.40;;;24.70;1.00;;;;;;5076155;28;20454;-73
2022/06/07 08:58:54;;;;;;;5.77;2.23;;;24.70;1.00;;;;;;5076817;28;20562;-73
2022/06/07 09:01:29;;;;;;;5.80;2.33;;;24.40;1.00;;;;;;5076547;28;20515;-74
2022/06/07 09:04:12;;;;;;;5.20;2.33;;;24.50;1.00;;;;;;5071238;28;20475;-73
2022/06/07 09:06:42;;;;;;;5.23;1.87;;;24.50;1.00;;;;;;5072962;28;20454;-73
2022/06/07 09:09:14;;;;;;;5.20;1.90;;;24.60;1.00;;;;;;5070213;28;20466;-73
2022/06/07 09:14:33;;;;;;;6.10;1.63;;;24.80;1.00;;;;;;5077019;28;20550;-73
2022/06/07 09:17:05;;;;;;;4.50;1.53;;;25.00;1.00;;;;;;5079397;28;20469;-74
2022/06/07 09:19:33;;;;;;;4.90;1.67;;;25.40;1.00;;;;;;5075934;28;20465;-73
2022/06/07 09:22:08;;;;;;;5.23;1.90;;;25.70;1.00;;;;;;5080977;28;20474;-74
2022/06/07 09:24:42;;;;;;;5.00;1.80;;;25.70;1.00;;;;;;5069342;28;20447;-73
2022/06/07 09:27:17;;;;;;;6.33;1.87;;;25.80;1.00;;;;;;5056889;28;20991;-74
2022/06/07 09:29:52;;;;;;;5.00;1.63;;;26.10;1.00;;;;;;5075959;27;20462;-75
2022/06/07 09:32:22;;;;;;;4.80;1.50;;;26.30;1.00;;;;;;5079889;28;20647;-76
2022/06/07 09:34:54;;;;;;;7.67;1.93;;;26.10;1.00;;;;;;5073020;28;20537;-74
2022/06/07 09:37:27;;;;;;;6.33;2.23;;;26.40;1.00;;;;;;5081252;28;20474;-74
2022/06/07 09:40:02;;;;;;;5.30;1.90;;;27.50;1.00;;;;;;5080997;28;20450;-73
2022/06/07 09:42:31;;;;;;;5.63;2.10;;;28.30;1.00;;;;;;5077387;28;20623;-75
2022/06/07 09:45:02;;;;;;;5.50;1.80;;;27.90;1.00;;;;;;5077497;28;20466;-76
2022/06/07 09:47:31;;;;;;;5.83;2.00;;;27.40;1.00;;;;;;5080402;28;20561;-77
2022/06/07 09:50:19;;;;;;;6.83;1.80;;;27.40;1.00;;;;;;5075642;28;20458;-73
2022/06/07 09:52:48;;;;;;;6.50;2.10;;;27.70;1.00;;;;;;5079339;28;20486;-73
2022/06/07 09:55:25;;;;;;;6.70;1.97;;;28.00;1.00;;;;;;5077410;28;20458;-73
2022/06/07 09:58:05;;;;;;;8.97;2.30;;;28.10;1.00;;;;;;5078129;28;20457;-74
2022/06/07 10:00:40;;;;;;;6.30;1.67;;;28.50;1.00;;;;;;5070968;28;20469;-73
2022/06/07 10:03:29;;;;;;;5.50;1.90;;;28.70;1.00;;;;;;5072312;28;20486;-74
2022/06/07 10:06:14;;;;;;;8.93;3.70;;;28.20;1.00;;;;;;5076833;28;20493;-76
2022/06/07 10:08:51;;;;;;;5.83;2.10;;;27.50;1.00;;;;;;5080757;28;21339;-73
2022/06/07 10:11:25;;;;;;;5.17;2.00;;;27.20;1.00;;;;;;5079538;28;20459;-73
2022/06/07 10:14:03;;;;;;;7.77;3.13;;;26.90;1.00;;;;;;5077738;28;20474;-75
2022/06/07 10:16:37;;;;;;;6.80;4.00;;;27.90;1.00;;;;;;5078970;28;20534;-73
2022/06/07 10:19:20;;;;;;;8.97;4.03;;;28.00;1.00;;;;;;5076257;28;20559;-74
2022/06/07 10:22:08;;;;;;;8.23;3.53;;;27.70;1.00;;;;;;5078052;28;21694;-74
2022/06/07 10:24:43;;;;;;;7.40;2.70;;;27.60;1.00;;;;;;5076027;28;20491;-74
2022/06/07 10:27:20;;;;;;;5.60;2.27;;;27.40;1.00;;;;;;5079075;28;20451;-73
2022/06/07 10:30:01;;;;;;;8.70;5.30;;;28.00;1.00;;;;;;5083476;28;20624;-73
2022/06/07 10:32:40;;;;;;;5.47;1.83;;;28.70;1.00;;;;;;5078315;28;20455;-75
2022/06/07 10:35:18;;;;;;;5.90;1.83;;;29.30;1.00;;;;;;5059454;28;20475;-74
2022/06/07 10:37:57;;;;;;;7.30;2.10;;;29.30;1.00;;;;;;5063184;28;21257;-73
2022/06/07 10:40:30;;;;;;;6.07;2.00;;;29.20;1.00;;;;;;5079745;28;20467;-73
2022/06/07 10:43:02;;;;;;;8.80;2.03;;;28.50;1.00;;;;;;5079290;28;20540;-75
2022/06/07 10:45:36;;;;;;;5.63;1.93;;;30.00;1.00;;;;;;5079509;28;20969;-74
2022/06/07 10:48:10;;;;;;;5.90;1.60;;;30.30;1.00;;;;;;5081200;28;20455;-74
2022/06/07 10:50:42;;;;;;;6.27;1.70;;;29.80;1.00;;;;;;5077322;28;20896;-73
2022/06/07 10:53:16;;;;;;;6.67;1.97;;;30.20;1.00;;;;;;5077906;28;20850;-74
2022/06/07 10:55:48;;;;;;;5.97;1.80;;;32.30;1.00;;;;;;5081279;28;20978;-74
2022/06/07 10:58:28;;;;;;;6.97;2.07;;;33.30;1.00;;;;;;5077738;28;20909;-75
2022/06/07 11:01:02;;;;;;;5.23;1.53;;;32.50;1.00;;;;;;5075608;28;20474;-73
2022/06/07 11:03:47;;;;;;;5.47;1.30;;;31.50;1.00;;;;;;5079008;28;20470;-76
2022/06/07 11:09:21;;;;;;;6.77;1.80;;;31.50;1.00;;;;;;5084460;28;20503;-75
2022/06/07 11:11:51;;;;;;;6.60;1.80;;;31.50;1.00;;;;;;5075490;28;20450;-73
2022/06/07 11:14:37;;;;;;;7.27;1.67;;;31.00;1.00;;;;;;5083283;28;21028;-73
2022/06/07 11:17:15;;;;;;;6.27;2.07;;;30.20;1.00;;;;;;5077135;28;20469;-75
2022/06/07 11:19:45;;;;;;;6.50;2.03;;;29.20;1.00;;;;;;5079915;28;20969;-74
2022/06/07 11:22:17;;;;;;;6.37;2.10;;;28.50;1.00;;;;;;5073810;28;20885;-73
2022/06/07 11:24:57;;;;;;;6.00;2.00;;;28.00;1.00;;;;;;5079179;28;20452;-73
2022/06/07 11:27:25;;;;;;;5.93;1.70;;;27.50;1.00;;;;;;5077464;28;20489;-74
2022/06/07 11:30:26;;;;;;;6.43;2.13;;;27.00;1.00;;;;;;5078295;28;20438;-74
2022/06/07 11:32:57;;;;;;;6.40;2.40;;;26.40;1.00;;;;;;5053892;28;20484;-74
2022/06/07 11:35:45;;;;;;;6.30;2.20;;;26.20;1.00;;;;;;5058324;28;20467;-76
2022/06/07 11:38:27;;;;;;;6.43;1.80;;;26.20;1.00;;;;;;5079971;28;20497;-73
2022/06/07 11:43:56;;;;;;;6.37;1.80;;;26.60;1.00;;;;;;5053159;28;20529;-76
2022/06/07 11:46:25;;;;;;;5.67;1.60;;;27.10;1.00;;;;;;5072564;28;20569;-72
2022/06/07 11:48:55;;;;;;;5.30;1.80;;;28.00;1.00;;;;;;5076763;28;20463;-73
2022/06/07 11:51:23;;;;;;;6.67;2.00;;;28.80;1.00;;;;;;5075555;28;20473;-75
2022/06/07 11:53:54;;;;;;;5.50;1.77;;;28.60;1.00;;;;;;5074248;27;20459;-74
2022/06/07 11:56:29;;;;;;;6.80;1.87;;;28.10;1.00;;;;;;5080092;28;20787;-74
2022/06/07 11:59:00;;;;;;;5.93;1.50;;;27.80;1.00;;;;;;5077130;28;20469;-73
2022/06/07 12:01:40;;;;;;;5.70;1.70;;;27.70;1.00;;;;;;5080796;28;20455;-74
2022/06/07 12:04:36;;;;;;;5.47;1.67;;;27.90;1.00;;;;;;5077598;28;20546;-75
2022/06/07 12:07:11;;;;;;;5.70;2.00;;;27.60;1.00;;;;;;5075565;28;20514;-75
2022/06/07 12:09:40;;;;;;;5.43;1.70;;;27.20;1.00;;;;;;5074773;28;20627;-75
2022/06/07 12:12:20;;;;;;;5.50;1.73;;;26.60;1.00;;;;;;5078591;28;20490;-73
2022/06/07 12:14:50;;;;;;;5.77;2.20;;;26.20;1.00;;;;;;5074740;28;20541;-73
2022/06/07 12:17:25;;;;;;;5.40;1.90;;;26.40;1.00;;;;;;5076522;28;20470;-75
2022/06/07 12:19:56;;;;;;;7.40;1.80;;;26.80;1.00;;;;;;5077846;28;20467;-75
2022/06/07 12:22:26;;;;;;;5.60;1.60;;;27.80;1.00;;;;;;5077460;28;20527;-73
2022/06/07 12:24:57;;;;;;;6.43;1.67;;;29.00;1.00;;;;;;5077477;28;20521;-74
2022/06/07 12:27:32;;;;;;;6.07;1.60;;;30.40;1.00;;;;;;5080768;28;20470;-74
2022/06/07 12:30:04;;;;;;;6.60;1.77;;;31.00;1.00;;;;;;5077314;28;20899;-75
2022/06/07 12:32:34;;;;;;;6.27;1.60;;;31.50;1.00;;;;;;5077093;28;20471;-73
2022/06/07 12:35:17;;;;;;;6.53;1.90;;;30.30;1.00;;;;;;5078185;28;21001;-75
2022/06/07 12:37:48;;;;;;;6.10;1.80;;;29.40;1.00;;;;;;5080515;27;20473;-75
2022/06/07 12:40:25;;;;;;;6.60;1.77;;;28.60;1.00;;;;;;5085121;27;20497;-73
2022/06/07 12:42:52;;;;;;;5.90;2.10;;;27.60;1.00;;;;;;5079609;28;20446;-73
2022/06/07 12:45:23;;;;;;;7.10;2.13;;;27.10;1.00;;;;;;5078408;28;20824;-73
2022/06/07 12:47:57;;;;;;;8.70;2.10;;;26.80;1.00;;;;;;5083677;28;20637;-74
2022/06/07 12:50:32;;;;;;;5.30;1.67;;;26.60;1.00;;;;;;5088294;28;20466;-75
2022/06/07 12:53:00;;;;;;;6.33;1.80;;;26.10;1.00;;;;;;5084403;28;20531;-76
2022/06/07 12:55:29;;;;;;;5.93;1.63;;;26.60;1.00;;;;;;5083374;28;20455;-74
2022/06/07 12:57:59;;;;;;;8.00;1.73;;;28.60;1.00;;;;;;5083342;28;20441;-75
2022/06/07 13:00:29;;;;;;;6.63;1.43;;;30.00;1.00;;;;;;5085394;28;20569;-74
2022/06/07 13:03:01;;;;;;;6.23;1.73;;;29.60;1.00;;;;;;5073932;28;20448;-73
2022/06/07 13:05:34;;;;;;;6.87;2.20;;;28.90;1.00;;;;;;5078376;28;20463;-74
2022/06/07 13:08:03;;;;;;;6.53;2.03;;;27.90;1.00;;;;;;5083122;28;21147;-77
2022/06/07 13:10:34;;;;;;;6.10;2.00;;;27.50;1.00;;;;;;5081932;28;20477;-78
2022/06/07 13:13:06;;;;;;;5.87;1.70;;;27.20;1.00;;;;;;5074366;28;20459;-74
2022/06/07 13:15:36;;;;;;;5.77;1.77;;;27.00;1.00;;;;;;5081109;28;20490;-75
2022/06/07 13:18:06;;;;;;;5.27;1.67;;;27.40;1.00;;;;;;5085948;28;20447;-76
2022/06/07 13:20:40;;;;;;;9.27;1.77;;;28.00;1.00;;;;;;5085888;28;20464;-75
2022/06/07 13:23:25;;;;;;;7.67;2.00;;;28.90;1.00;;;;;;5083021;28;20461;-76
2022/06/07 13:25:54;;;;;;;6.43;1.50;;;30.70;1.00;;;;;;5078026;28;20545;-74
2022/06/07 13:28:24;;;;;;;7.20;1.80;;;31.00;1.00;;;;;;5068696;28;20952;-74
2022/06/07 13:30:54;;;;;;;5.57;1.50;;;30.60;1.00;;;;;;5081541;28;20474;-75
2022/06/07 13:33:30;;;;;;;6.10;1.93;;;30.20;1.00;;;;;;5082336;28;20534;-76
2022/06/07 13:36:02;;;;;;;7.30;1.30;;;30.60;1.00;;;;;;5082415;28;20489;-76
2022/06/07 13:38:35;;;;;;;5.90;1.70;;;31.00;1.00;;;;;;5085728;28;20994;-73
2022/06/07 13:41:18;;;;;;;5.60;1.37;;;30.20;1.00;;;;;;5076907;28;20854;-76